createdAt,value
2023-03-30T00:01:04.718Z,30.13
2023-03-30T00:03:33.322Z,30.90
2023-03-30T00:06:05.329Z,29.47
2023-03-30T00:08:33.577Z,30.83
2023-03-30T00:11:02.158Z,30.03
2023-03-30T00:13:31.801Z,25.00
2023-03-30T00:15:59.393Z,24.90
2023-03-30T00:18:27.382Z,25.60
2023-03-30T00:20:54.877Z,25.27
2023-03-30T00:23:22.426Z,27.23
2023-03-30T00:25:49.998Z,25.77
2023-03-30T00:28:17.521Z,26.93
2023-03-30T00:30:47.621Z,27.03
2023-03-30T00:33:15.678Z,30.80
2023-03-30T00:35:43.182Z,27.80
2023-03-30T00:38:10.687Z,29.73
2023-03-30T00:40:38.367Z,28.97
2023-03-30T00:43:07.634Z,26.67
2023-03-30T00:45:35.743Z,32.30
2023-03-30T00:48:08.263Z,32.57
2023-03-30T00:50:40.553Z,32.20
2023-03-30T00:53:16.173Z,33.53
2023-03-30T00:55:46.050Z,36.77
2023-03-30T00:58:15.696Z,37.20
2023-03-30T01:00:47.063Z,33.30
2023-03-30T01:03:21.309Z,44.70
2023-03-30T01:05:50.028Z,75.10
2023-03-30T01:08:18.285Z,65.03
2023-03-30T01:10:45.933Z,74.27
2023-03-30T01:13:14.467Z,58.07
2023-03-30T01:15:53.365Z,52.37
2023-03-30T01:18:33.166Z,44.80
2023-03-30T01:21:55.623Z,49.03
2023-03-30T01:24:53.213Z,50.00
2023-03-30T01:27:54.932Z,52.03
2023-03-30T01:30:36.210Z,55.83
2023-03-30T01:33:23.398Z,63.63
2023-03-30T01:36:31.764Z,65.53
2023-03-30T01:39:19.083Z,48.07
2023-03-30T01:41:55.849Z,46.83
2023-03-30T01:44:33.299Z,89.47
2023-03-30T01:47:08.586Z,71.57
2023-03-30T01:49:41.708Z,58.20
2023-03-30T01:52:16.133Z,64.03
2023-03-30T01:54:49.049Z,53.67
2023-03-30T01:57:19.546Z,53.87
2023-03-30T01:59:55.125Z,76.77
2023-03-30T02:02:25.378Z,87.67
2023-03-30T02:04:54.620Z,104.23
2023-03-30T02:07:26.040Z,108.87
2023-03-30T02:09:59.164Z,66.60
2023-03-30T02:12:30.224Z,148.03
2023-03-30T02:15:02.269Z,163.03
2023-03-30T02:17:31.085Z,129.17
2023-03-30T02:20:00.183Z,144.00
2023-03-30T02:22:29.435Z,146.13
2023-03-30T02:24:58.876Z,145.93
2023-03-30T02:27:27.636Z,126.57
2023-03-30T02:29:56.338Z,110.03
2023-03-30T02:32:27.080Z,96.17
2023-03-30T02:35:22.303Z,67.07
2023-03-30T02:38:19.622Z,39.97
2023-03-30T02:40:57.937Z,49.03
2023-03-30T02:43:38.764Z,64.07
2023-03-30T02:46:20.480Z,77.73
2023-03-30T02:49:01.835Z,102.43
2023-03-30T02:51:40.868Z,111.23
2023-03-30T02:54:19.505Z,124.23
2023-03-30T02:56:55.190Z,166.27
2023-03-30T02:59:28.577Z,163.83
2023-03-30T03:01:59.861Z,138.70
2023-03-30T03:04:29.962Z,153.80
2023-03-30T03:06:57.538Z,207.37
2023-03-30T03:09:25.973Z,183.70
2023-03-30T03:11:54.924Z,184.87
2023-03-30T03:14:22.551Z,153.33
2023-03-30T03:16:50.051Z,177.03
2023-03-30T03:19:17.559Z,123.27
2023-03-30T03:21:45.027Z,117.97
2023-03-30T03:24:13.652Z,97.70
2023-03-30T03:26:41.134Z,56.53
2023-03-30T03:29:10.133Z,87.23
2023-03-30T03:31:38.007Z,83.10
2023-03-30T03:34:05.680Z,57.53
2023-03-30T03:36:33.432Z,45.20
2023-03-30T03:39:00.994Z,57.33
2023-03-30T03:41:28.474Z,49.73
2023-03-30T03:43:56.975Z,45.20
2023-03-30T03:46:25.884Z,57.77
2023-03-30T03:48:53.398Z,41.37
2023-03-30T03:51:21.137Z,53.60
2023-03-30T03:53:49.667Z,76.27
2023-03-30T03:56:17.151Z,106.47
2023-03-30T03:58:44.642Z,130.07
2023-03-30T04:01:14.352Z,119.60
2023-03-30T04:03:43.668Z,145.07
2023-03-30T04:06:11.238Z,120.57
2023-03-30T04:08:38.798Z,124.17
2023-03-30T04:11:07.802Z,107.67
2023-03-30T04:13:35.507Z,99.43
2023-03-30T04:16:03.107Z,81.50
2023-03-30T04:18:33.286Z,96.90
2023-03-30T04:21:05.192Z,58.67
2023-03-30T04:23:34.130Z,89.97
2023-03-30T04:26:02.648Z,45.30
2023-03-30T04:28:31.691Z,42.67
2023-03-30T04:31:00.216Z,55.10
2023-03-30T04:33:28.041Z,53.80
2023-03-30T04:35:55.601Z,31.70
2023-03-30T04:38:24.406Z,28.87
2023-03-30T04:40:53.052Z,38.27
2023-03-30T04:43:21.546Z,90.37
2023-03-30T04:45:50.701Z,71.83
2023-03-30T04:48:19.465Z,73.03
2023-03-30T04:50:49.234Z,70.33
2023-03-30T04:53:18.653Z,68.70
2023-03-30T04:55:51.604Z,35.80
2023-03-30T04:58:19.407Z,67.87
2023-03-30T05:00:47.357Z,78.27
2023-03-30T05:03:14.947Z,67.93
2023-03-30T05:05:43.010Z,65.70
2023-03-30T05:08:10.494Z,72.87
2023-03-30T05:10:37.965Z,54.10
2023-03-30T05:13:06.828Z,34.93
2023-03-30T05:15:34.287Z,175.87
2023-03-30T05:18:01.792Z,172.23
2023-03-30T05:20:29.315Z,128.68
2023-03-30T05:22:56.770Z,159.77
2023-03-30T05:25:24.254Z,64.43
2023-03-30T05:27:51.903Z,222.38
2023-03-30T05:30:20.747Z,329.75
2023-03-30T05:32:48.227Z,151.02
2023-03-30T05:35:15.716Z,104.07
2023-03-30T05:37:43.168Z,76.72
2023-03-30T05:40:11.638Z,37.10
2023-03-30T05:42:39.100Z,67.25
2023-03-30T05:45:07.998Z,75.28
2023-03-30T05:47:36.872Z,98.75
2023-03-30T05:50:04.619Z,72.35
2023-03-30T05:52:32.449Z,170.40
2023-03-30T05:54:59.903Z,79.53
2023-03-30T05:57:27.490Z,57.65
2023-03-30T05:59:54.976Z,117.82
2023-03-30T06:02:22.525Z,174.73
2023-03-30T06:04:52.190Z,59.38
2023-03-30T06:07:20.706Z,88.00
2023-03-30T06:09:48.275Z,82.22
2023-03-30T06:12:15.752Z,20.42
2023-03-30T06:14:43.234Z,8.50
2023-03-30T06:17:12.129Z,6.05
2023-03-30T06:19:40.042Z,6.53
2023-03-30T06:22:09.413Z,6.57
2023-03-30T06:24:37.262Z,7.22
2023-03-30T06:27:04.765Z,8.57
2023-03-30T06:29:32.309Z,8.43
2023-03-30T06:31:59.933Z,9.57
2023-03-30T06:34:27.470Z,26.10
2023-03-30T06:36:54.936Z,14.57
2023-03-30T06:39:25.400Z,28.08
2023-03-30T06:41:52.882Z,30.65
2023-03-30T06:44:20.543Z,38.95
2023-03-30T06:46:48.020Z,44.25
2023-03-30T06:49:15.570Z,47.83
2023-03-30T06:51:43.159Z,44.13
2023-03-30T06:54:10.801Z,36.58
2023-03-30T06:56:40.055Z,18.00
2023-03-30T06:59:07.602Z,21.17
2023-03-30T07:01:35.250Z,24.08
2023-03-30T07:04:02.774Z,24.05
2023-03-30T07:06:30.271Z,21.17
2023-03-30T07:08:57.729Z,24.65
2023-03-30T07:11:26.166Z,21.27
2023-03-30T07:13:56.251Z,23.55
2023-03-30T07:16:23.777Z,20.77
2023-03-30T07:18:52.052Z,26.10
2023-03-30T07:21:19.608Z,28.40
2023-03-30T07:23:47.066Z,27.35
2023-03-30T07:26:14.555Z,31.02
2023-03-30T07:28:42.009Z,25.52
2023-03-30T07:31:13.774Z,20.00
2023-03-30T07:33:41.942Z,20.10
2023-03-30T07:36:10.104Z,26.52
2023-03-30T07:38:37.757Z,32.90
2023-03-30T07:41:09.202Z,25.75
2023-03-30T07:43:36.768Z,21.30
2023-03-30T07:46:04.849Z,32.47
2023-03-30T07:48:33.867Z,29.05
2023-03-30T07:51:02.876Z,23.83
2023-03-30T07:53:30.723Z,13.48
2023-03-30T07:55:58.186Z,13.18
2023-03-30T07:58:26.566Z,12.32
2023-03-30T08:00:54.804Z,12.48
2023-03-30T08:03:23.110Z,12.85
2023-03-30T08:05:56.040Z,13.27
2023-03-30T08:08:24.028Z,21.08
2023-03-30T08:10:51.826Z,18.27
2023-03-30T08:13:21.687Z,19.85
2023-03-30T08:15:50.636Z,27.40
2023-03-30T08:18:18.168Z,26.83
2023-03-30T08:20:45.782Z,28.63
2023-03-30T08:23:14.570Z,30.67
2023-03-30T08:25:42.650Z,31.92
2023-03-30T08:28:11.192Z,32.80
2023-03-30T08:30:38.717Z,34.00
2023-03-30T08:33:06.242Z,29.40
2023-03-30T08:35:33.818Z,23.60
2023-03-30T08:38:01.337Z,18.20
2023-03-30T08:40:30.138Z,20.35
2023-03-30T08:43:11.671Z,23.05
2023-03-30T08:45:42.846Z,19.58
2023-03-30T08:48:19.376Z,25.02
2023-03-30T08:50:54.165Z,26.85
2023-03-30T08:53:22.097Z,32.88
2023-03-30T08:55:54.840Z,29.23
2023-03-30T08:58:33.020Z,34.38
2023-03-30T09:01:09.101Z,32.10
2023-03-30T09:03:41.765Z,29.80
2023-03-30T09:06:17.154Z,38.22
2023-03-30T09:08:45.002Z,36.22
2023-03-30T09:11:18.794Z,29.80
2023-03-30T09:13:47.602Z,28.50
2023-03-30T09:16:19.911Z,28.35
2023-03-30T09:18:52.115Z,28.58
2023-03-30T09:21:22.307Z,39.03
2023-03-30T09:23:50.030Z,27.80
2023-03-30T09:26:28.376Z,28.08
2023-03-30T09:29:01.037Z,32.40
2023-03-30T09:31:34.289Z,30.92
2023-03-30T09:34:07.156Z,22.17
2023-03-30T09:36:40.758Z,17.75
2023-03-30T09:39:12.377Z,22.33
2023-03-30T09:41:54.686Z,20.35
2023-03-30T09:44:28.086Z,20.85
2023-03-30T09:46:59.479Z,30.75
2023-03-30T09:49:29.189Z,21.85
2023-03-30T09:52:03.680Z,23.55
2023-03-30T09:54:38.991Z,20.35
2023-03-30T09:57:24.873Z,32.22
2023-03-30T09:59:55.724Z,26.35
2023-03-30T10:02:25.792Z,36.35
2023-03-30T10:05:00.284Z,29.50
2023-03-30T10:07:30.121Z,32.17
2023-03-30T10:09:59.961Z,30.25
2023-03-30T10:12:30.796Z,18.65
2023-03-30T10:15:04.086Z,17.08
2023-03-30T10:17:32.213Z,17.27
2023-03-30T10:20:22.215Z,15.57
2023-03-30T10:22:52.312Z,14.90
2023-03-30T10:25:23.674Z,15.50
2023-03-30T10:27:55.744Z,16.27
2023-03-30T10:30:27.776Z,17.13
2023-03-30T10:32:58.102Z,16.95
2023-03-30T10:35:27.984Z,17.90
2023-03-30T10:37:58.569Z,16.77
2023-03-30T10:40:33.310Z,18.10
2023-03-30T10:43:02.326Z,16.88
2023-03-30T10:45:38.045Z,21.48
2023-03-30T10:48:22.378Z,21.27
2023-03-30T10:50:57.270Z,38.38
2023-03-30T10:53:35.652Z,26.55
2023-03-30T10:56:12.669Z,26.95
2023-03-30T10:58:53.659Z,23.98
2023-03-30T11:01:26.573Z,43.03
2023-03-30T11:04:02.715Z,20.15
2023-03-30T11:06:39.042Z,19.58
2023-03-30T11:09:12.335Z,18.05
2023-03-30T11:11:42.757Z,11.88
2023-03-30T11:14:16.483Z,12.55
2023-03-30T11:16:52.029Z,11.45
2023-03-30T11:19:23.600Z,11.38
2023-03-30T11:21:59.264Z,11.85
2023-03-30T11:24:29.053Z,14.25
2023-03-30T11:27:02.317Z,15.00
2023-03-30T11:29:37.553Z,13.82
2023-03-30T11:32:17.977Z,13.65
2023-03-30T11:34:55.866Z,14.00
2023-03-30T11:37:29.793Z,14.60
2023-03-30T11:40:08.335Z,16.58
2023-03-30T11:42:37.929Z,15.40
2023-03-30T11:45:18.565Z,14.48
2023-03-30T11:48:03.549Z,15.73
2023-03-30T11:50:45.918Z,14.95
2023-03-30T11:53:25.113Z,13.13
2023-03-30T11:56:02.917Z,13.55
2023-03-30T11:58:36.501Z,12.48
2023-03-30T12:01:27.247Z,12.52
2023-03-30T12:04:00.281Z,10.10
2023-03-30T12:06:31.571Z,11.32
2023-03-30T12:09:20.160Z,9.68
2023-03-30T12:11:52.080Z,10.55
2023-03-30T12:14:41.551Z,8.95
2023-03-30T12:17:25.489Z,11.10
2023-03-30T12:19:58.027Z,11.20
2023-03-30T12:22:34.359Z,11.88
2023-03-30T12:25:08.877Z,20.30
2023-03-30T12:27:38.717Z,19.73
2023-03-30T12:30:25.965Z,12.95
2023-03-30T12:33:03.433Z,10.82
2023-03-30T12:35:53.887Z,7.85
2023-03-30T12:38:25.367Z,9.05
2023-03-30T12:41:14.414Z,8.23
2023-03-30T12:43:54.530Z,9.05
2023-03-30T12:46:30.516Z,10.23
2023-03-30T12:49:08.976Z,10.95
2023-03-30T12:51:58.460Z,5.65
2023-03-30T12:54:42.564Z,6.72
2023-03-30T12:57:22.367Z,6.03
2023-03-30T13:00:08.824Z,5.63
2023-03-30T13:03:01.360Z,6.70
2023-03-30T13:05:34.074Z,5.45
2023-03-30T13:08:05.466Z,6.10
2023-03-30T13:10:43.789Z,5.18
2023-03-30T13:13:22.080Z,4.95
2023-03-30T13:15:52.851Z,5.45
2023-03-30T13:18:34.768Z,7.10
2023-03-30T13:21:18.644Z,7.63
2023-03-30T13:24:04.205Z,8.05
2023-03-30T13:26:42.000Z,8.20
2023-03-30T13:29:11.418Z,6.30
2023-03-30T13:31:53.308Z,7.03
2023-03-30T13:34:33.634Z,6.00
2023-03-30T13:37:15.627Z,6.07
2023-03-30T13:39:53.845Z,5.45
2023-03-30T13:42:36.308Z,11.25
2023-03-30T13:45:15.803Z,8.25
2023-03-30T13:47:57.497Z,7.93
2023-03-30T13:50:28.522Z,6.10
2023-03-30T13:52:59.909Z,6.85
2023-03-30T13:55:33.216Z,6.50
2023-03-30T13:58:04.467Z,6.03
2023-03-30T14:00:40.074Z,8.52
2023-03-30T14:03:32.233Z,6.68
2023-03-30T14:06:03.527Z,4.68
2023-03-30T14:08:35.598Z,5.82
2023-03-30T14:11:07.590Z,4.45
2023-03-30T14:13:37.994Z,4.85
2023-03-30T14:16:07.633Z,5.22
2023-03-30T14:18:35.903Z,4.90
2023-03-30T14:21:06.227Z,5.78
2023-03-30T14:23:37.794Z,5.90
2023-03-30T14:26:13.133Z,7.40
2023-03-30T14:28:42.284Z,6.25
2023-03-30T14:31:17.157Z,5.53
2023-03-30T14:33:46.113Z,11.95
2023-03-30T14:36:16.114Z,7.57
2023-03-30T14:38:47.743Z,9.98
2023-03-30T14:41:17.989Z,4.47
2023-03-30T14:43:51.962Z,13.32
2023-03-30T14:46:19.618Z,21.52
2023-03-30T14:48:50.706Z,24.25
2023-03-30T14:51:27.341Z,11.75
2023-03-30T14:53:57.683Z,27.58
2023-03-30T14:56:25.831Z,8.70
2023-03-30T14:58:54.938Z,43.22
2023-03-30T15:01:30.815Z,46.35
2023-03-30T15:04:00.790Z,39.63
2023-03-30T15:06:30.937Z,29.65
2023-03-30T15:09:02.984Z,26.58
2023-03-30T15:11:34.321Z,30.42
2023-03-30T15:14:08.285Z,19.65
2023-03-30T15:16:38.081Z,43.20
2023-03-30T15:19:13.172Z,48.75
2023-03-30T15:21:41.625Z,10.95
2023-03-30T15:24:16.618Z,21.60
2023-03-30T15:26:47.146Z,22.98
2023-03-30T15:29:16.617Z,14.70
2023-03-30T15:31:44.305Z,13.52
2023-03-30T15:34:16.852Z,21.90
2023-03-30T15:36:45.451Z,10.50
2023-03-30T15:39:22.629Z,34.05
2023-03-30T15:41:59.003Z,54.58
2023-03-30T15:44:26.479Z,90.18
2023-03-30T15:46:57.033Z,105.82
2023-03-30T15:49:31.297Z,93.30
2023-03-30T15:52:02.442Z,99.28
2023-03-30T15:54:38.442Z,84.07
2023-03-30T15:57:08.519Z,44.00
2023-03-30T15:59:40.997Z,23.60
2023-03-30T16:02:16.228Z,77.75
2023-03-30T16:04:43.893Z,132.32
2023-03-30T16:07:17.209Z,110.90
2023-03-30T16:09:46.408Z,8.63
2023-03-30T16:12:16.258Z,18.15
2023-03-30T16:14:43.921Z,23.40
2023-03-30T16:17:12.979Z,22.10
2023-03-30T16:19:41.151Z,10.95
2023-03-30T16:22:09.945Z,12.50
2023-03-30T16:24:37.562Z,10.88
2023-03-30T16:27:07.247Z,9.73
2023-03-30T16:29:34.910Z,7.72
2023-03-30T16:32:02.817Z,7.18
2023-03-30T16:34:30.403Z,7.53
2023-03-30T16:36:57.891Z,6.97
2023-03-30T16:39:27.122Z,7.63
2023-03-30T16:41:55.933Z,7.57
2023-03-30T16:44:25.845Z,6.95
2023-03-30T16:46:53.839Z,7.35
2023-03-30T16:49:23.569Z,8.18
2023-03-30T16:51:51.631Z,7.25
2023-03-30T16:54:30.579Z,7.18
2023-03-30T16:56:59.952Z,8.13
2023-03-30T16:59:32.891Z,7.53
2023-03-30T17:02:01.078Z,8.15
2023-03-30T17:04:28.739Z,7.68
2023-03-30T17:06:56.372Z,7.85
2023-03-30T17:09:24.123Z,5.97
2023-03-30T17:11:51.788Z,114.00
2023-03-30T17:14:20.022Z,40.47
2023-03-30T17:16:48.895Z,31.52
2023-03-30T17:19:16.412Z,5.93
2023-03-30T17:21:44.206Z,4.03
2023-03-30T17:24:12.653Z,12.57
2023-03-30T17:26:40.914Z,5.57
2023-03-30T17:29:08.421Z,4.65
2023-03-30T17:31:36.008Z,5.53
2023-03-30T17:34:06.596Z,5.28
2023-03-30T17:36:34.079Z,5.05
2023-03-30T17:39:04.688Z,4.65
2023-03-30T17:41:33.588Z,5.20
2023-03-30T17:44:01.157Z,5.47
2023-03-30T17:46:29.085Z,5.30
2023-03-30T17:48:57.890Z,5.40
2023-03-30T17:51:26.925Z,5.20
2023-03-30T17:53:54.439Z,5.43
2023-03-30T17:56:22.254Z,5.22
2023-03-30T17:58:50.001Z,6.75
2023-03-30T18:01:17.505Z,4.57
2023-03-30T18:03:45.342Z,5.90
2023-03-30T18:06:13.610Z,4.55
2023-03-30T18:08:42.951Z,5.28
2023-03-30T18:11:10.538Z,5.72
2023-03-30T18:13:38.084Z,5.82
2023-03-30T18:16:06.030Z,5.78
2023-03-30T18:18:33.626Z,6.10
2023-03-30T18:21:03.942Z,6.38
2023-03-30T18:23:34.311Z,6.57
2023-03-30T18:26:06.437Z,7.75
2023-03-30T18:28:39.145Z,6.88
2023-03-30T18:31:08.531Z,10.02
2023-03-30T18:33:36.096Z,9.23
2023-03-30T18:36:06.003Z,8.52
2023-03-30T18:38:34.134Z,10.02
2023-03-30T18:41:02.963Z,12.85
2023-03-30T18:43:30.698Z,6.97
2023-03-30T18:46:01.764Z,5.18
2023-03-30T18:48:29.841Z,5.78
2023-03-30T18:50:57.506Z,7.22
2023-03-30T18:53:26.750Z,6.15
2023-03-30T18:55:57.357Z,7.90
2023-03-30T18:58:28.263Z,6.47
2023-03-30T19:00:56.982Z,7.55
2023-03-30T19:03:27.201Z,6.57
2023-03-30T19:05:55.463Z,6.15
2023-03-30T19:08:24.992Z,5.85
2023-03-30T19:10:54.794Z,7.10
2023-03-30T19:13:23.465Z,7.25
2023-03-30T19:15:53.323Z,7.55
2023-03-30T19:18:21.083Z,10.23
2023-03-30T19:20:49.756Z,18.63
2023-03-30T19:23:18.291Z,8.68
2023-03-30T19:25:46.284Z,11.55
2023-03-30T19:28:14.894Z,10.63
2023-03-30T19:30:42.708Z,10.88
2023-03-30T19:33:14.813Z,8.15
2023-03-30T19:35:43.031Z,14.80
2023-03-30T19:38:10.825Z,10.25
2023-03-30T19:40:38.845Z,63.85
2023-03-30T19:43:06.920Z,154.43
2023-03-30T19:45:34.591Z,222.77
2023-03-30T19:48:02.167Z,118.05
2023-03-30T19:50:31.626Z,168.30
2023-03-30T19:52:59.923Z,205.70
2023-03-30T19:55:27.531Z,130.43
2023-03-30T19:57:55.228Z,89.68
2023-03-30T20:00:22.807Z,72.57
2023-03-30T20:02:52.490Z,144.32
2023-03-30T20:05:21.918Z,21.13
2023-03-30T20:07:51.633Z,18.70
2023-03-30T20:10:21.328Z,18.00
2023-03-30T20:12:49.445Z,65.45
2023-03-30T20:15:17.734Z,59.70
2023-03-30T20:17:45.514Z,45.58
2023-03-30T20:20:17.025Z,39.90
2023-03-30T20:22:45.420Z,16.05
2023-03-30T20:25:16.578Z,21.85
2023-03-30T20:27:44.043Z,8.57
2023-03-30T20:30:12.585Z,6.82
2023-03-30T20:32:40.556Z,6.97
2023-03-30T20:35:08.791Z,5.43
2023-03-30T20:37:36.315Z,5.45
2023-03-30T20:40:04.880Z,6.70
2023-03-30T20:42:33.784Z,6.13
2023-03-30T20:45:01.628Z,7.25
2023-03-30T20:47:31.256Z,5.95
2023-03-30T20:49:59.324Z,8.00
2023-03-30T20:52:27.100Z,6.35
2023-03-30T20:54:54.676Z,8.30
2023-03-30T20:57:22.841Z,8.00
2023-03-30T20:59:53.272Z,8.10
2023-03-30T21:02:21.381Z,6.80
2023-03-30T21:04:49.413Z,7.95
2023-03-30T21:07:17.849Z,5.35
2023-03-30T21:09:45.786Z,9.27
2023-03-30T21:12:13.275Z,23.02
2023-03-30T21:14:40.769Z,12.55
2023-03-30T21:17:09.731Z,11.93
2023-03-30T21:19:37.520Z,8.10
2023-03-30T21:22:05.479Z,7.00
2023-03-30T21:24:34.206Z,14.15
2023-03-30T21:27:01.672Z,5.93
2023-03-30T21:29:29.162Z,6.93
2023-03-30T21:31:57.635Z,6.75
2023-03-30T21:34:26.516Z,6.00
2023-03-30T21:36:54.100Z,9.65
2023-03-30T21:39:21.639Z,7.00
2023-03-30T21:41:49.195Z,6.80
2023-03-30T21:44:16.656Z,6.40
2023-03-30T21:46:44.182Z,5.70
2023-03-30T21:49:11.899Z,8.82
2023-03-30T21:51:40.821Z,7.03
2023-03-30T21:54:08.762Z,41.30
2023-03-30T21:56:36.347Z,10.38
2023-03-30T21:59:03.863Z,11.37
2023-03-30T22:01:31.423Z,8.40
2023-03-30T22:03:59.045Z,5.17
2023-03-30T22:06:26.790Z,6.37
2023-03-30T22:08:55.624Z,6.07
2023-03-30T22:11:25.076Z,6.20
2023-03-30T22:13:55.280Z,6.63
2023-03-30T22:16:25.722Z,7.97
2023-03-30T22:18:53.466Z,7.10
2023-03-30T22:21:24.470Z,6.00
2023-03-30T22:23:52.092Z,5.17
2023-03-30T22:26:20.911Z,5.20
2023-03-30T22:28:48.425Z,6.10
2023-03-30T22:31:16.642Z,5.93
2023-03-30T22:33:44.646Z,6.13
2023-03-30T22:36:17.236Z,5.93
2023-03-30T22:38:44.863Z,6.43
2023-03-30T22:41:12.346Z,5.67
2023-03-30T22:43:41.535Z,5.83
2023-03-30T22:46:09.705Z,5.77
2023-03-30T22:48:41.243Z,7.43
2023-03-30T22:51:09.096Z,8.10
2023-03-30T22:53:38.437Z,5.83
2023-03-30T22:56:06.518Z,6.87
2023-03-30T22:58:34.421Z,6.40
2023-03-30T23:01:05.931Z,7.73
2023-03-30T23:03:34.038Z,6.80
2023-03-30T23:06:01.887Z,6.30
2023-03-30T23:08:30.419Z,7.10
2023-03-30T23:11:04.673Z,7.30
2023-03-30T23:13:33.073Z,6.73
2023-03-30T23:16:01.465Z,5.87
2023-03-30T23:18:30.466Z,6.37
2023-03-30T23:20:57.969Z,6.93
2023-03-30T23:23:25.687Z,9.97
2023-03-30T23:25:53.280Z,8.50
2023-03-30T23:28:20.854Z,7.60
2023-03-30T23:30:48.381Z,6.50
2023-03-30T23:33:16.409Z,5.33
2023-03-30T23:35:50.753Z,7.50
2023-03-30T23:38:18.364Z,11.30
2023-03-30T23:40:46.376Z,8.83
2023-03-30T23:43:13.849Z,11.07
2023-03-30T23:45:43.735Z,10.97
2023-03-30T23:48:11.291Z,9.83
2023-03-30T23:50:38.741Z,8.87
2023-03-30T23:53:07.862Z,8.40
2023-03-30T23:55:35.357Z,8.80
2023-03-30T23:58:02.839Z,7.47
